createdAt,value
2023-11-01T00:02:22.972Z,15.60
2023-11-01T00:04:51.116Z,15.70
2023-11-01T00:07:19.165Z,15.80
2023-11-01T00:09:47.338Z,15.80
2023-11-01T00:12:15.444Z,15.90
2023-11-01T00:14:43.512Z,15.90
2023-11-01T00:17:12.673Z,16.00
2023-11-01T00:19:41.230Z,16.00
2023-11-01T00:22:09.228Z,16.00
2023-11-01T00:24:43.984Z,16.10
2023-11-01T00:27:12.656Z,16.30
2023-11-01T00:29:40.844Z,16.40
2023-11-01T00:32:08.984Z,16.30
2023-11-01T00:34:37.283Z,16.20
2023-11-01T00:37:05.731Z,16.10
2023-11-01T00:39:33.869Z,16.10
2023-11-01T00:42:02.093Z,16.00
2023-11-01T00:44:30.268Z,16.00
2023-11-01T00:46:58.365Z,16.00
2023-11-01T00:49:26.517Z,16.00
2023-11-01T00:51:54.530Z,16.00
2023-11-01T00:54:22.700Z,15.90
2023-11-01T00:56:50.817Z,15.90
2023-11-01T00:59:18.952Z,15.80
2023-11-01T01:01:46.978Z,15.90
2023-11-01T01:04:15.304Z,15.80
2023-11-01T01:06:43.638Z,15.90
2023-11-01T01:09:13.787Z,15.90
2023-11-01T01:11:42.308Z,15.90
2023-11-01T01:14:10.404Z,15.90
2023-11-01T01:16:38.547Z,16.00
2023-11-01T01:19:06.785Z,16.00
2023-11-01T01:21:35.002Z,15.90
2023-11-01T01:24:04.459Z,15.90
2023-11-01T01:26:32.693Z,15.90
2023-11-01T01:29:00.788Z,15.90
2023-11-01T01:31:28.923Z,15.90
2023-11-01T01:33:57.068Z,15.90
2023-11-01T01:36:25.156Z,15.90
2023-11-01T01:38:53.889Z,15.90
2023-11-01T01:41:22.223Z,15.80
2023-11-01T01:43:50.598Z,15.80
2023-11-01T01:46:19.626Z,15.80
2023-11-01T01:48:47.968Z,15.80
2023-11-01T01:51:16.202Z,15.80
2023-11-01T01:53:46.125Z,15.70
2023-11-01T01:56:14.899Z,15.70
2023-11-01T01:58:43.574Z,15.70
2023-11-01T02:01:12.502Z,15.70
2023-11-01T02:03:40.861Z,15.70
2023-11-01T02:06:09.234Z,15.70
2023-11-01T02:08:40.133Z,15.60
2023-11-01T02:11:08.225Z,15.60
2023-11-01T02:13:36.415Z,15.60
2023-11-01T02:16:04.557Z,15.50
2023-11-01T02:18:32.620Z,15.50
2023-11-01T02:21:01.016Z,15.40
2023-11-01T02:23:34.123Z,15.40
2023-11-01T02:26:03.374Z,15.40
2023-11-01T02:28:31.543Z,15.40
2023-11-01T02:30:59.627Z,15.40
2023-11-01T02:33:28.045Z,15.40
2023-11-01T02:35:56.127Z,15.30
2023-11-01T02:38:24.221Z,15.30
2023-11-01T02:40:52.371Z,15.30
2023-11-01T02:43:20.502Z,15.30
2023-11-01T02:45:48.639Z,15.30
2023-11-01T02:48:16.697Z,15.30
2023-11-01T02:50:44.986Z,15.30
2023-11-01T02:53:13.057Z,15.30
2023-11-01T02:55:42.641Z,15.30
2023-11-01T02:58:10.861Z,15.20
2023-11-01T03:00:38.923Z,15.20
2023-11-01T03:03:07.393Z,15.20
2023-11-01T03:05:35.686Z,15.20
2023-11-01T03:08:04.390Z,15.20
2023-11-01T03:10:32.601Z,15.20
2023-11-01T03:13:00.722Z,15.10
2023-11-01T03:15:28.705Z,15.10
2023-11-01T03:17:56.952Z,15.10
2023-11-01T03:20:25.131Z,15.10
2023-11-01T03:22:53.402Z,15.10
2023-11-01T03:25:21.491Z,15.10
2023-11-01T03:27:49.546Z,15.10
2023-11-01T03:30:17.789Z,15.10
2023-11-01T03:32:45.848Z,15.00
2023-11-01T03:35:13.880Z,15.00
2023-11-01T03:37:42.347Z,15.00
2023-11-01T03:40:10.397Z,15.00
2023-11-01T03:42:38.443Z,15.00
2023-11-01T03:45:07.103Z,15.00
2023-11-01T03:47:35.306Z,14.90
2023-11-01T03:50:03.418Z,14.90
2023-11-01T03:52:31.708Z,14.90
2023-11-01T03:54:59.749Z,14.90
2023-11-01T03:57:27.821Z,14.90
2023-11-01T03:59:56.230Z,14.90
2023-11-01T04:02:24.574Z,14.90
2023-11-01T04:04:52.783Z,14.80
2023-11-01T04:07:21.065Z,14.80
2023-11-01T04:09:49.284Z,14.80
2023-11-01T04:12:17.348Z,14.80
2023-11-01T04:14:45.596Z,14.80
2023-11-01T04:17:13.799Z,14.80
2023-11-01T04:19:42.043Z,14.80
2023-11-01T04:22:10.056Z,14.80
2023-11-01T04:24:38.178Z,14.80
2023-11-01T04:27:07.251Z,14.70
2023-11-01T04:29:35.301Z,14.70
2023-11-01T04:32:04.475Z,14.70
2023-11-01T04:34:32.655Z,14.70
2023-11-01T04:37:01.046Z,14.70
2023-11-01T04:39:29.166Z,14.70
2023-11-01T04:41:57.269Z,14.70
2023-11-01T04:44:25.422Z,14.60
2023-11-01T04:46:53.597Z,14.60
2023-11-01T04:49:21.731Z,14.60
2023-11-01T04:51:49.952Z,14.60
2023-11-01T04:54:18.448Z,14.60
2023-11-01T04:56:46.643Z,14.60
2023-11-01T04:59:14.814Z,14.60
2023-11-01T05:01:42.873Z,14.60
2023-11-01T05:04:11.088Z,14.60
2023-11-01T05:06:40.788Z,14.50
2023-11-01T05:09:09.097Z,14.60
2023-11-01T05:11:37.234Z,14.50
2023-11-01T05:14:05.308Z,14.50
2023-11-01T05:16:33.766Z,14.50
2023-11-01T05:19:01.905Z,14.50
2023-11-01T05:21:29.968Z,14.50
2023-11-01T05:23:58.050Z,14.50
2023-11-01T05:26:26.243Z,14.50
2023-11-01T05:28:54.295Z,14.50
2023-11-01T05:31:22.334Z,14.50
2023-11-01T05:33:51.813Z,14.50
2023-11-01T05:36:20.210Z,14.40
2023-11-01T05:38:48.281Z,14.40
2023-11-01T05:41:16.458Z,14.30
2023-11-01T05:43:45.528Z,14.30
2023-11-01T05:46:13.660Z,14.30
2023-11-01T05:48:41.828Z,14.20
2023-11-01T05:51:10.581Z,14.20
2023-11-01T05:53:38.724Z,14.20
2023-11-01T05:56:10.089Z,14.30
2023-11-01T05:58:39.331Z,14.30
2023-11-01T06:01:07.984Z,14.40
2023-11-01T06:03:36.325Z,14.30
2023-11-01T06:06:04.766Z,14.30
2023-11-01T06:08:32.836Z,14.40
2023-11-01T06:11:00.928Z,14.60
2023-11-01T06:13:28.995Z,14.80
2023-11-01T06:16:00.993Z,14.90
2023-11-01T06:18:29.212Z,14.80
2023-11-01T06:20:57.859Z,14.70
2023-11-01T06:23:25.948Z,14.60
2023-11-01T06:25:54.035Z,14.60
2023-11-01T06:28:22.107Z,14.90
2023-11-01T06:30:51.456Z,15.10
2023-11-01T06:33:19.790Z,15.40
2023-11-01T06:35:48.211Z,15.50
2023-11-01T06:38:16.394Z,15.80
2023-11-01T06:40:44.483Z,16.20
2023-11-01T06:43:12.607Z,16.10
2023-11-01T06:45:41.933Z,15.90
2023-11-01T06:48:11.188Z,15.90
2023-11-01T06:50:41.905Z,15.80
2023-11-01T06:53:10.012Z,16.20
2023-11-01T06:55:38.788Z,16.80
2023-11-01T06:58:06.860Z,16.90
2023-11-01T07:00:35.550Z,16.60
2023-11-01T07:03:04.099Z,16.50
2023-11-01T07:05:32.521Z,16.40
2023-11-01T07:08:00.680Z,16.90
2023-11-01T07:10:28.757Z,18.00
2023-11-01T07:12:56.922Z,18.80
2023-11-01T07:15:25.287Z,19.30
2023-11-01T07:17:53.625Z,18.90
2023-11-01T07:20:21.824Z,20.00
2023-11-01T07:22:52.760Z,22.80
2023-11-01T07:25:20.862Z,25.30
2023-11-01T07:27:48.959Z,24.20
2023-11-01T07:30:17.153Z,23.60
2023-11-01T07:32:46.728Z,23.10
2023-11-01T07:35:14.937Z,22.70
2023-11-01T07:37:43.056Z,22.30
2023-11-01T07:40:11.640Z,22.00
2023-11-01T07:42:40.269Z,21.60
2023-11-01T07:45:10.373Z,20.80
2023-11-01T07:47:40.252Z,19.80
2023-11-01T07:50:10.964Z,19.00
2023-11-01T07:52:40.650Z,18.70
2023-11-01T07:55:08.825Z,19.20
2023-11-01T07:57:37.038Z,19.80
2023-11-01T08:00:07.166Z,20.30
2023-11-01T08:02:35.590Z,20.60
2023-11-01T08:05:07.424Z,20.80
2023-11-01T08:07:35.765Z,20.80
2023-11-01T08:10:04.038Z,21.30
2023-11-01T08:12:32.412Z,21.10
2023-11-01T08:15:00.509Z,21.50
2023-11-01T08:17:28.701Z,21.50
2023-11-01T08:19:56.889Z,21.40
2023-11-01T08:22:25.056Z,21.90
2023-11-01T08:24:53.449Z,21.90
2023-11-01T08:27:21.657Z,22.00
2023-11-01T08:29:49.770Z,21.80
2023-11-01T08:32:17.920Z,21.30
2023-11-01T08:34:46.070Z,21.60
2023-11-01T08:37:14.215Z,21.80
2023-11-01T08:39:42.565Z,22.40
2023-11-01T08:42:13.180Z,22.10
2023-11-01T08:44:41.350Z,20.90
2023-11-01T08:47:10.785Z,21.70
2023-11-01T08:49:39.089Z,22.30
2023-11-01T08:52:07.681Z,21.90
2023-11-01T08:54:36.511Z,22.20
2023-11-01T08:57:04.734Z,23.10
2023-11-01T08:59:32.917Z,23.60
2023-11-01T09:02:07.404Z,23.30
2023-11-01T09:04:42.075Z,23.20
2023-11-01T09:07:10.879Z,23.20
2023-11-01T09:09:39.322Z,22.80
2023-11-01T09:12:08.718Z,22.90
2023-11-01T09:14:38.204Z,23.00
2023-11-01T09:17:06.952Z,23.70
2023-11-01T09:19:35.510Z,23.80
2023-11-01T09:22:03.843Z,23.40
2023-11-01T09:24:32.145Z,23.50
2023-11-01T09:27:00.962Z,24.00
2023-11-01T09:29:29.176Z,24.80
2023-11-01T09:31:57.370Z,24.10
2023-11-01T09:34:25.533Z,22.80
2023-11-01T09:36:53.758Z,21.80
2023-11-01T09:39:22.201Z,21.20
2023-11-01T09:41:54.100Z,20.80
2023-11-01T09:44:22.397Z,21.50
2023-11-01T09:46:51.290Z,21.40
2023-11-01T09:49:19.528Z,21.10
2023-11-01T09:51:47.756Z,21.40
2023-11-01T09:54:15.924Z,22.80
2023-11-01T09:56:44.670Z,23.80
2023-11-01T09:59:13.945Z,24.70
2023-11-01T10:01:42.427Z,23.90
2023-11-01T10:04:11.358Z,22.70
2023-11-01T10:06:39.697Z,23.80
2023-11-01T10:09:07.975Z,24.20
2023-11-01T10:11:36.285Z,24.50
2023-11-01T10:14:04.488Z,25.20
2023-11-01T10:16:32.981Z,24.20
2023-11-01T10:19:03.632Z,23.20
2023-11-01T10:21:32.831Z,23.60
2023-11-01T10:24:05.162Z,24.50
2023-11-01T10:26:36.975Z,25.70
2023-11-01T10:29:05.244Z,25.90
2023-11-01T10:31:33.268Z,26.20
2023-11-01T10:34:10.937Z,26.00
2023-11-01T10:36:52.168Z,24.80
2023-11-01T10:39:20.729Z,22.80
2023-11-01T10:41:52.305Z,23.00
2023-11-01T10:44:24.746Z,22.90
2023-11-01T10:46:53.893Z,22.80
2023-11-01T10:49:22.434Z,24.00
2023-11-01T10:51:51.105Z,24.60
2023-11-01T10:54:20.316Z,25.00
2023-11-01T10:56:49.525Z,25.10
2023-11-01T10:59:36.699Z,25.30
2023-11-01T11:02:10.932Z,24.90
2023-11-01T11:04:48.003Z,24.40
2023-11-01T11:07:25.427Z,24.50
2023-11-01T11:10:15.089Z,24.80
2023-11-01T11:13:09.119Z,25.00
2023-11-01T11:15:47.985Z,25.00
2023-11-01T11:18:23.308Z,24.50
2023-11-01T11:20:55.096Z,25.40
2023-11-01T11:23:33.271Z,25.30
2023-11-01T11:26:03.457Z,26.00
2023-11-01T11:28:36.472Z,25.80
2023-11-01T11:31:07.353Z,26.30
2023-11-01T11:33:36.814Z,25.80
2023-11-01T11:36:17.905Z,26.40
2023-11-01T11:38:57.140Z,26.20
2023-11-01T11:41:40.605Z,26.20
2023-11-01T11:44:18.231Z,25.10
2023-11-01T11:46:50.407Z,25.70
2023-11-01T11:49:25.139Z,26.10
2023-11-01T11:51:57.607Z,26.30
2023-11-01T11:54:26.570Z,26.20
2023-11-01T11:56:55.453Z,25.90
2023-11-01T11:59:24.616Z,25.30
2023-11-01T12:01:53.718Z,25.50
2023-11-01T12:04:22.345Z,25.20
2023-11-01T12:06:55.105Z,24.80
2023-11-01T12:09:23.656Z,25.00
2023-11-01T12:11:53.278Z,24.70
2023-11-01T12:14:22.321Z,24.80
2023-11-01T12:16:51.473Z,24.50
2023-11-01T12:19:20.586Z,24.90
2023-11-01T12:21:52.824Z,24.80
2023-11-01T12:24:22.480Z,24.70
2023-11-01T12:26:59.778Z,24.80
2023-11-01T12:29:31.494Z,24.60
2023-11-01T12:32:07.507Z,24.40
2023-11-01T12:34:36.883Z,24.50
2023-11-01T12:37:14.916Z,24.60
2023-11-01T12:40:02.483Z,24.50
2023-11-01T12:42:39.687Z,24.30
2023-11-01T12:45:16.810Z,24.40
2023-11-01T12:47:55.126Z,24.50
2023-11-01T12:50:25.845Z,24.10
2023-11-01T12:52:54.687Z,23.90
2023-11-01T12:55:22.977Z,23.60
2023-11-01T12:57:52.487Z,23.60
2023-11-01T13:00:21.589Z,24.00
2023-11-01T13:02:49.811Z,23.90
2023-11-01T13:05:18.540Z,23.90
2023-11-01T13:07:47.397Z,24.00
2023-11-01T13:10:16.631Z,24.00
2023-11-01T13:12:48.822Z,24.00
2023-11-01T13:15:18.327Z,23.80
2023-11-01T13:17:48.255Z,23.30
2023-11-01T13:20:17.308Z,23.50
2023-11-01T13:22:45.409Z,23.30
2023-11-01T13:25:16.338Z,23.30
2023-11-01T13:27:44.638Z,23.40
2023-11-01T13:30:13.041Z,23.10
2023-11-01T13:32:44.219Z,23.20
2023-11-01T13:35:12.210Z,22.90
2023-11-01T13:37:40.842Z,23.10
2023-11-01T13:40:10.944Z,22.90
2023-11-01T13:42:39.117Z,22.60
2023-11-01T13:45:08.681Z,22.60
2023-11-01T13:47:37.073Z,22.30
2023-11-01T13:50:05.244Z,22.10
2023-11-01T13:52:36.261Z,22.20
2023-11-01T13:55:04.432Z,22.30
2023-11-01T13:57:32.600Z,21.90
2023-11-01T14:00:00.702Z,22.00
2023-11-01T14:02:28.957Z,21.60
2023-11-01T14:04:57.108Z,21.50
2023-11-01T14:07:25.136Z,21.40
2023-11-01T14:09:55.959Z,21.20
2023-11-01T14:12:30.406Z,21.10
2023-11-01T14:14:58.551Z,20.50
2023-11-01T14:17:26.985Z,20.30
2023-11-01T14:19:55.198Z,20.20
2023-11-01T14:22:23.372Z,20.10
2023-11-01T14:24:54.117Z,20.00
2023-11-01T14:27:23.895Z,19.80
2023-11-01T14:29:52.476Z,19.70
2023-11-01T14:32:20.662Z,19.70
2023-11-01T14:34:48.833Z,19.60
2023-11-01T14:37:16.899Z,19.30
2023-11-01T14:39:45.039Z,19.20
2023-11-01T14:42:13.438Z,18.90
2023-11-01T14:44:41.701Z,19.00
2023-11-01T14:47:09.868Z,18.90
2023-11-01T14:49:41.068Z,18.60
2023-11-01T14:52:09.247Z,18.50
2023-11-01T14:54:39.666Z,18.40
2023-11-01T14:57:07.844Z,18.00
2023-11-01T14:59:38.262Z,17.80
2023-11-01T15:02:07.019Z,17.30
2023-11-01T15:04:36.987Z,16.70
2023-11-01T15:07:08.288Z,16.50
2023-11-01T15:09:36.961Z,16.90
2023-11-01T15:12:14.068Z,17.10
2023-11-01T15:14:42.638Z,16.80
2023-11-01T15:17:11.130Z,16.60
2023-11-01T15:19:45.030Z,16.10
2023-11-01T15:22:14.022Z,15.80
2023-11-01T15:24:51.124Z,15.90
2023-11-01T15:27:20.232Z,16.20
2023-11-01T15:29:50.864Z,16.20
2023-11-01T15:32:19.246Z,15.80
2023-11-01T15:34:47.822Z,15.50
2023-11-01T15:37:20.772Z,15.80
2023-11-01T15:39:49.710Z,16.00
2023-11-01T15:42:18.112Z,15.50
2023-11-01T15:44:46.255Z,15.80
2023-11-01T15:47:17.513Z,16.00
2023-11-01T15:49:45.690Z,15.90
2023-11-01T15:52:13.867Z,15.10
2023-11-01T15:54:45.094Z,15.30
2023-11-01T15:57:15.339Z,15.50
2023-11-01T15:59:45.954Z,15.60
2023-11-01T16:02:14.147Z,15.80
2023-11-01T16:04:44.993Z,15.70
2023-11-01T16:07:13.358Z,15.80
2023-11-01T16:09:42.676Z,15.80
2023-11-01T16:12:11.020Z,15.70
2023-11-01T16:14:39.229Z,15.70
2023-11-01T16:17:12.261Z,15.70
2023-11-01T16:19:40.514Z,15.60
2023-11-01T16:22:23.085Z,15.50
2023-11-01T16:24:51.572Z,15.40
2023-11-01T16:27:25.478Z,15.40
2023-11-01T16:29:53.693Z,15.30
2023-11-01T16:32:25.097Z,15.20
2023-11-01T16:34:56.433Z,15.10
2023-11-01T16:37:24.486Z,15.10
2023-11-01T16:39:53.025Z,15.00
2023-11-01T16:42:21.186Z,15.00
2023-11-01T16:44:49.296Z,14.90
2023-11-01T16:47:17.589Z,14.90
2023-11-01T16:49:51.446Z,14.80
2023-11-01T16:52:19.586Z,14.70
2023-11-01T16:54:47.743Z,14.70
2023-11-01T16:57:16.084Z,14.60
2023-11-01T16:59:44.517Z,14.60
2023-11-01T17:02:12.707Z,14.50
2023-11-01T17:04:56.266Z,14.40
2023-11-01T17:07:26.243Z,14.40
2023-11-01T17:09:54.388Z,14.30
2023-11-01T17:12:22.595Z,14.30
2023-11-01T17:14:54.066Z,14.20
2023-11-01T17:17:22.244Z,14.10
2023-11-01T17:19:52.546Z,14.10
2023-11-01T17:22:32.779Z,14.00
2023-11-01T17:25:03.749Z,14.00
2023-11-01T17:27:36.033Z,14.00
2023-11-01T17:30:05.544Z,13.90
2023-11-01T17:32:39.442Z,13.90
2023-11-01T17:35:07.838Z,13.80
2023-11-01T17:37:41.200Z,13.70
2023-11-01T17:40:12.262Z,13.70
2023-11-01T17:42:43.533Z,13.70
2023-11-01T17:45:11.978Z,13.60
2023-11-01T17:47:44.806Z,13.60
2023-11-01T17:50:18.189Z,13.50
2023-11-01T17:52:48.668Z,13.50
2023-11-01T17:55:18.388Z,13.50
2023-11-01T17:57:48.819Z,13.40
2023-11-01T18:00:17.394Z,13.40
2023-11-01T18:03:00.819Z,13.40
2023-11-01T18:05:40.863Z,13.30
2023-11-01T18:08:10.362Z,13.30
2023-11-01T18:10:43.053Z,13.20
2023-11-01T18:13:22.985Z,13.20
2023-11-01T18:15:52.234Z,13.20
2023-11-01T18:18:29.456Z,13.20
2023-11-01T18:21:06.007Z,13.10
2023-11-01T18:23:34.187Z,13.00
2023-11-01T18:26:13.028Z,12.90
2023-11-01T18:28:45.001Z,12.90
2023-11-01T18:31:19.362Z,12.90
2023-11-01T18:33:55.153Z,12.90
2023-11-01T18:36:23.586Z,12.80
2023-11-01T18:38:54.742Z,12.70
2023-11-01T18:41:27.933Z,12.70
2023-11-01T18:43:56.236Z,12.70
2023-11-01T18:46:25.158Z,12.70
2023-11-01T18:48:55.810Z,12.60
2023-11-01T18:51:42.758Z,12.60
2023-11-01T18:54:11.176Z,12.60
2023-11-01T18:56:42.622Z,12.50
2023-11-01T18:59:11.203Z,12.50
2023-11-01T19:01:42.403Z,12.40
2023-11-01T19:04:12.961Z,12.30
2023-11-01T19:06:42.722Z,12.30
2023-11-01T19:09:11.189Z,12.20
2023-11-01T19:11:39.283Z,12.30
2023-11-01T19:14:07.493Z,12.20
2023-11-01T19:16:35.575Z,12.20
2023-11-01T19:19:03.921Z,12.20
2023-11-01T19:21:32.205Z,12.10
2023-11-01T19:24:00.890Z,12.00
2023-11-01T19:26:30.441Z,12.00
2023-11-01T19:28:58.782Z,12.00
2023-11-01T19:31:30.151Z,12.00
2023-11-01T19:33:58.345Z,12.00
2023-11-01T19:36:27.783Z,12.00
2023-11-01T19:38:56.810Z,11.90
2023-11-01T19:41:25.045Z,11.90
2023-11-01T19:43:59.765Z,11.80
2023-11-01T19:46:27.980Z,11.80
2023-11-01T19:48:56.142Z,11.80
2023-11-01T19:51:24.224Z,11.80
2023-11-01T19:53:54.401Z,11.70
2023-11-01T19:56:25.557Z,11.70
2023-11-01T19:58:54.775Z,11.70
2023-11-01T20:01:23.301Z,11.60
2023-11-01T20:03:52.119Z,11.50
2023-11-01T20:06:22.179Z,11.50
2023-11-01T20:08:51.226Z,11.50
2023-11-01T20:11:19.391Z,11.50
2023-11-01T20:13:47.553Z,11.50
2023-11-01T20:16:21.707Z,11.50
2023-11-01T20:18:56.529Z,11.50
2023-11-01T20:21:24.606Z,11.40
2023-11-01T20:23:53.108Z,11.40
2023-11-01T20:26:22.498Z,11.40
2023-11-01T20:28:50.605Z,11.40
2023-11-01T20:31:19.352Z,11.40
2023-11-01T20:33:50.537Z,11.30
2023-11-01T20:36:18.831Z,11.30
2023-11-01T20:38:46.920Z,11.30
2023-11-01T20:41:15.495Z,11.30
2023-11-01T20:43:43.575Z,11.30
2023-11-01T20:46:12.759Z,11.30
2023-11-01T20:48:41.001Z,11.30
2023-11-01T20:51:13.502Z,11.30
2023-11-01T20:53:43.026Z,11.30
2023-11-01T20:56:11.502Z,11.30
2023-11-01T20:58:39.756Z,11.30
2023-11-01T21:01:07.993Z,11.30
2023-11-01T21:03:36.230Z,11.20
2023-11-01T21:06:04.493Z,11.20
2023-11-01T21:08:36.104Z,11.20
2023-11-01T21:11:05.346Z,11.20
2023-11-01T21:13:33.442Z,11.20
2023-11-01T21:16:02.663Z,11.20
2023-11-01T21:18:32.931Z,11.20
2023-11-01T21:21:02.307Z,11.20
2023-11-01T21:23:30.480Z,11.20
2023-11-01T21:25:59.040Z,11.20
2023-11-01T21:28:27.204Z,11.20
2023-11-01T21:30:56.888Z,11.20
2023-11-01T21:33:24.968Z,11.20
2023-11-01T21:35:53.211Z,11.20
2023-11-01T21:38:21.476Z,11.20
2023-11-01T21:40:49.558Z,11.20
2023-11-01T21:43:22.036Z,11.20
2023-11-01T21:45:52.620Z,11.20
2023-11-01T21:48:24.068Z,11.20
2023-11-01T21:50:52.614Z,11.20
2023-11-01T21:53:21.288Z,11.20
2023-11-01T21:55:55.921Z,11.20
2023-11-01T21:58:26.555Z,11.10
2023-11-01T22:00:57.174Z,11.20
2023-11-01T22:03:44.579Z,11.20
2023-11-01T22:06:17.720Z,11.10
2023-11-01T22:08:49.124Z,11.10
2023-11-01T22:11:17.172Z,11.10
2023-11-01T22:13:45.485Z,11.10
2023-11-01T22:16:24.802Z,11.10
2023-11-01T22:18:57.544Z,11.10
2023-11-01T22:21:29.402Z,11.10
2023-11-01T22:23:59.883Z,11.10
2023-11-01T22:26:28.468Z,11.10
2023-11-01T22:29:02.960Z,11.10
2023-11-01T22:31:37.098Z,11.10
2023-11-01T22:34:05.505Z,11.10
2023-11-01T22:36:36.845Z,11.10
2023-11-01T22:39:08.072Z,11.00
2023-11-01T22:41:36.572Z,11.10
2023-11-01T22:44:06.703Z,11.00
2023-11-01T22:46:35.173Z,11.10
2023-11-01T22:49:03.298Z,11.00
2023-11-01T22:51:31.350Z,11.00
2023-11-01T22:53:59.536Z,11.00
2023-11-01T22:56:27.569Z,11.00
2023-11-01T22:58:55.744Z,11.00
2023-11-01T23:01:25.387Z,11.00
2023-11-01T23:03:53.634Z,11.00
2023-11-01T23:06:21.835Z,11.00
2023-11-01T23:08:50.609Z,11.00
2023-11-01T23:11:18.829Z,11.00
2023-11-01T23:13:47.009Z,11.00
2023-11-01T23:16:15.200Z,10.90
2023-11-01T23:18:44.041Z,10.90
2023-11-01T23:21:12.339Z,10.90
2023-11-01T23:23:40.395Z,11.00
2023-11-01T23:26:22.630Z,10.90
2023-11-01T23:29:10.133Z,11.00
2023-11-01T23:31:48.984Z,11.00
2023-11-01T23:34:34.119Z,10.90
2023-11-01T23:37:02.630Z,11.00
2023-11-01T23:39:38.228Z,10.90
2023-11-01T23:42:10.817Z,10.90
2023-11-01T23:44:38.944Z,10.90
2023-11-01T23:47:07.406Z,10.90
2023-11-01T23:52:37.584Z,10.90
2023-11-01T23:55:06.036Z,10.90
2023-11-01T23:57:35.251Z,10.90
